Información del aeropuerto ENHK

Información de pista
Pista 11 Longitud 3179 ft Anchura 98 ft
Elevación 19 ft Umbral 199 ft Rumbo 119
Pista 29 Longitud 3179 ft Anchura 98 ft
Elevación 10 ft Umbral 362 ft Rumbo 299
Frecuencias del aeropuerto
Tipo AFIS Nombre INFO Frecuencia 119.9 MHZ
Radioayudas del aeropuerto
Tipo NDB Nombre Hasvik Frecuencia 386 KHZ
Información meteorológica del aeropuerto y NOTAM
ADDS - METARS form results

(2244 UTC 19 May 2022)
Data provider http://aviationweather.gov/metar/data/
 
METAR text: ENHK 192220Z AUTO 09009KT 9999 NCD 02/M03 Q1019
Conditions at: ENHK (HASVIK , NO) observed 2220 UTC 19 May 2022
Temperature: 2.0°C (36°F)
Dewpoint: -3.0°C (27°F) [RH = 69%]
Pressure (altimeter): 30.09 inches Hg (1019.0 mb)
Winds: from the E (90 degrees) at 10 MPH (9 knots; 4.6 m/s)
Visibility: 6 or more miles (10+ km)
Ceiling: at least 12,000 feet AGL
Clouds: sky clear below 12,000 feet AGL
Weather: no significant weather observed at this time

METAR text: ENHK 192150Z AUTO 09008KT 9999 NCD 02/M03 Q1019
Conditions at: ENHK (HASVIK , NO) observed 2150 UTC 19 May 2022
Temperature: 2.0°C (36°F)
Dewpoint: -3.0°C (27°F) [RH = 69%]
Pressure (altimeter): 30.09 inches Hg (1019.0 mb)
Winds: from the E (90 degrees) at 9 MPH (8 knots; 4.1 m/s)
Visibility: 6 or more miles (10+ km)
Ceiling: at least 12,000 feet AGL
Clouds: sky clear below 12,000 feet AGL
Weather: no significant weather observed at this time